Bookmark and Share
Track history (hours):
 

Hagen

Last reported at 2014-Apr-24 10:30 UTC. Time now 2014-Apr-24 11:08 UTC.
Position N 53°26' W 003°00'.

Length 89 m; draft 5.9 m.

Type: Cargo ship. MMSI: 304010898.

NotesDate/timePositionNaut miles runAvg speedWind from/ knotsBaromVisibWave heightAir tempDewpointWater temp
2014-Apr-24 10:30N 53°26' W 003°00'0 0.0
2014-Apr-24 09:30N 53°26' W 003°00'0 0.0
2014-Apr-24 08:30N 53°26' W 003°00'0 0.0
2014-Apr-24 07:30N 53°26' W 003°00'0 0.0
2014-Apr-24 06:30N 53°26' W 003°00'0 0.0
2014-Apr-24 05:30N 53°26' W 003°00'0 0.0
2014-Apr-24 04:30N 53°26' W 003°00'0 0.0
2014-Apr-24 03:30N 53°26' W 003°00'0 0.0
2014-Apr-24 02:30N 53°26' W 003°00'0 0.0
2014-Apr-24 01:30N 53°26' W 003°00'0 0.0
2014-Apr-24 00:30N 53°26' W 003°00'0 0.0
2014-Apr-23 23:30N 53°26' W 003°00'0 0.0
2014-Apr-23 22:30N 53°26' W 003°00'0 0.0
2014-Apr-23 21:30N 53°26' W 003°00'0 0.0
2014-Apr-23 20:30N 53°26' W 003°00'0 0.0
2014-Apr-23 19:33N 53°26' W 003°00'0 0.0
2014-Apr-23 18:30N 53°26' W 003°00'0 0.0
2014-Apr-23 17:30N 53°26' W 003°00'0 0.0
2014-Apr-23 16:24N 53°26' W 003°00'0 0.0
2014-Apr-23 15:30N 53°26' W 003°00'0 0.0
2014-Apr-23 14:30N 53°26' W 003°00'0 0.0
2014-Apr-23 13:30N 53°26' W 003°00'0 0.0
2014-Apr-23 12:30N 53°26' W 003°00'0 0.0
2014-Apr-23 11:30N 53°26' W 003°00'0 0.0
2014-Apr-23 10:30N 53°26' W 003°00'0 0.0
2014-Apr-23 09:30N 53°26' W 003°00'0 0.0
2014-Apr-23 08:30N 53°26' W 003°00'0 0.0
2014-Apr-23 07:30N 53°26' W 003°00'0 0.0
2014-Apr-23 06:30N 53°26' W 003°00'0 0.0
2014-Apr-23 05:30N 53°26' W 003°00'0 0.0
2014-Apr-23 04:30N 53°26' W 003°00'0 0.0
2014-Apr-23 03:30N 53°26' W 003°00'0 0.0
2014-Apr-23 02:30N 53°26' W 003°00'0 0.0
2014-Apr-23 01:24N 53°26' W 003°00'0 0.0
2014-Apr-23 00:30N 53°26' W 003°00'0 0.0
2014-Apr-22 23:30N 53°26' W 003°00'0 0.0
2014-Apr-22 22:30N 53°26' W 003°00'0 0.0
2014-Apr-22 21:30N 53°26' W 003°00'0 0.0
2014-Apr-22 20:30N 53°26' W 003°00'0 0.0
2014-Apr-22 19:30N 53°26' W 003°00'0 0.0
2014-Apr-22 18:33N 53°26' W 003°00'0 0.0
2014-Apr-22 17:30N 53°26' W 003°00'0 0.0
2014-Apr-22 16:30N 53°26' W 003°00'0 0.0
2014-Apr-22 15:30N 53°26' W 003°00'0 0.0
2014-Apr-22 14:30N 53°26' W 003°00'0 0.0
2014-Apr-22 13:30N 53°26' W 003°00'0 0.0
2014-Apr-22 12:24N 53°26' W 003°00'0 0.0
2014-Apr-22 11:30N 53°26' W 003°00'0 0.0
2014-Apr-22 10:30N 53°26' W 003°00'0 0.0
2014-Apr-22 09:30N 53°26' W 003°00'0 0.0
2014-Apr-22 08:30N 53°26' W 003°00'0 0.0
2014-Apr-22 07:30N 53°26' W 003°00'0 0.0
2014-Apr-22 06:30N 53°26' W 003°00'0 0.0
2014-Apr-22 05:30N 53°26' W 003°00'0 0.0
2014-Apr-22 04:30N 53°26' W 003°00'0 0.0
2014-Apr-22 03:30N 53°26' W 003°00'0 0.0
2014-Apr-22 02:30N 53°26' W 003°00'0 0.0
2014-Apr-22 01:30N 53°26' W 003°00'0 0.0
2014-Apr-22 00:30N 53°26' W 003°00'0 0.0
2014-Apr-21 23:30N 53°26' W 003°00'0 0.0
2014-Apr-21 22:30N 53°26' W 003°00'0 0.0
2014-Apr-21 21:30N 53°26' W 003°00'0 0.0
2014-Apr-21 20:30N 53°26' W 003°00'0 0.0
2014-Apr-21 19:24N 53°26' W 003°00'0 0.0
2014-Apr-21 18:30N 53°26' W 003°00'0 0.0
2014-Apr-21 17:30N 53°26' W 003°00'0 0.0
2014-Apr-21 16:30N 53°26' W 003°00'0 0.0
2014-Apr-21 15:30N 53°26' W 003°00'0 0.0
2014-Apr-21 14:30N 53°26' W 003°00'0 0.0
2014-Apr-21 13:30N 53°26' W 003°00'0 0.0
2014-Apr-21 12:33N 53°26' W 003°00'0 0.2
2014-Apr-21 11:33N 53°26' W 003°01'1 0.8
2014-Apr-21 10:33N 53°27' W 003°02'7 6.7
2014-Apr-21 09:33N 53°32' W 003°09'8 8.3
2014-Apr-21 08:33N 53°32' W 003°23'8 7.6
2014-Apr-21 07:32N 53°31' W 003°36'6 6.4
2014-Apr-21 06:33N 53°31' W 003°47'5 4.7
2014-Apr-21 05:33N 53°31' W 003°54'  
2014-Apr-16 01:24N 37°50' W 009°35'8 9.3
2014-Apr-16 00:32N 37°42' W 009°34'11 9.1
2014-Apr-15 23:17N 37°31' W 009°30'10 9.3
2014-Apr-15 22:10N 37°21' W 009°27'8 9.3
2014-Apr-15 21:16N 37°13' W 009°25'205 8.3
2014-Apr-14 20:34N 35°60' W 005°27'8 8.3
2014-Apr-14 19:34N 35°55' W 005°19'1 0.9
2014-Apr-14 18:30N 35°54' W 005°19'0 0.0
2014-Apr-14 17:33N 35°54' W 005°19'0 0.0
2014-Apr-14 16:33N 35°54' W 005°19'0 0.0
2014-Apr-14 15:32N 35°54' W 005°19'0 0.0
2014-Apr-14 14:34N 35°54' W 005°19'1 1.4
2014-Apr-14 13:34N 35°55' W 005°18'1 0.5
2014-Apr-14 11:34N 35°56' W 005°19'1 0.5
2014-Apr-14 10:34N 35°56' W 005°19'  

Dump ship's entire track history

sailing weather and tide predictions

Hagen — V2PB3 — position and weather